Time;durP1;ratioP1;P1;durP2;ratioP2;P2;SDS_P1;SDS_P2;PMS_P1;PMS_P2;Temp;Humidity;BMP_temperature;BMP_pressure;BME280_temperature;BME280_humidity;BME280_pressure;Samples;Min_cycle;Max_cycle;Signal;HPM_P1;HPM_P2
2021/09/17 00:00:36;;;;;;;6.60;5.90;;;14.90;99.90;;;;;;2066147;28;20057;-71
2021/09/17 00:01:37;;;;;;;6.68;5.78;;;14.90;99.90;;;;;;2063820;28;20062;-71
2021/09/17 00:02:38;;;;;;;6.72;5.68;;;14.90;99.90;;;;;;2063310;28;20114;-71
2021/09/17 00:03:39;;;;;;;6.60;5.47;;;14.90;99.90;;;;;;2063598;28;20034;-71
2021/09/17 00:04:39;;;;;;;6.00;5.40;;;14.90;99.90;;;;;;2063766;28;20026;-71
2021/09/17 00:05:40;;;;;;;6.30;5.70;;;14.90;99.90;;;;;;2063375;28;20451;-71
2021/09/17 00:06:41;;;;;;;5.97;4.80;;;14.90;99.90;;;;;;2063331;28;20026;-71
2021/09/17 00:07:41;;;;;;;6.22;5.43;;;14.90;99.90;;;;;;2063442;28;20056;-71
2021/09/17 00:08:42;;;;;;;6.40;5.50;;;14.80;99.90;;;;;;2063118;28;20069;-69
2021/09/17 00:09:42;;;;;;;7.57;5.28;;;14.80;99.90;;;;;;2063889;28;20030;-71
2021/09/17 00:10:43;;;;;;;6.70;5.35;;;14.80;99.90;;;;;;2071906;28;20045;-71
2021/09/17 00:11:44;;;;;;;6.55;5.30;;;14.80;99.90;;;;;;2069420;28;20034;-71
2021/09/17 00:12:44;;;;;;;8.02;6.03;;;14.80;99.90;;;;;;2063833;28;20026;-71
2021/09/17 00:13:45;;;;;;;6.22;5.68;;;14.80;99.90;;;;;;2063162;28;20023;-69
2021/09/17 00:14:46;;;;;;;6.05;5.45;;;14.80;99.90;;;;;;2063468;28;20026;-71
2021/09/17 00:15:46;;;;;;;5.82;4.90;;;14.80;99.90;;;;;;2063546;28;20076;-71
2021/09/17 00:16:47;;;;;;;9.20;5.45;;;14.80;99.90;;;;;;2063611;28;20022;-71
2021/09/17 00:17:48;;;;;;;6.07;5.47;;;14.80;99.90;;;;;;2063644;28;20048;-71
2021/09/17 00:18:48;;;;;;;6.07;5.28;;;14.80;99.90;;;;;;2062962;28;20073;-71
2021/09/17 00:19:49;;;;;;;5.28;4.78;;;14.80;99.90;;;;;;2064361;28;20034;-71
2021/09/17 00:20:49;;;;;;;7.45;6.20;;;14.80;99.90;;;;;;2071609;28;20100;-71
2021/09/17 00:21:50;;;;;;;9.02;6.35;;;14.80;99.90;;;;;;2071574;28;20053;-70
2021/09/17 00:22:50;;;;;;;6.68;6.07;;;14.70;99.90;;;;;;2071441;28;20030;-71
2021/09/17 00:23:51;;;;;;;9.10;6.40;;;14.70;99.90;;;;;;2071552;28;20367;-71
2021/09/17 00:24:52;;;;;;;8.20;6.30;;;14.70;99.90;;;;;;2068571;28;20582;-71
2021/09/17 00:25:52;;;;;;;7.45;5.93;;;14.70;99.90;;;;;;2063401;28;20105;-71
2021/09/17 00:26:53;;;;;;;7.95;6.57;;;14.70;99.90;;;;;;2063513;28;20034;-71
2021/09/17 00:27:53;;;;;;;7.45;6.75;;;14.70;99.90;;;;;;2063248;28;20050;-71
2021/09/17 00:28:54;;;;;;;6.75;6.05;;;14.70;99.90;;;;;;2062946;28;20076;-71
2021/09/17 00:29:55;;;;;;;8.82;6.68;;;14.70;99.90;;;;;;2064305;28;20101;-71
2021/09/17 00:30:55;;;;;;;6.55;5.85;;;14.70;99.90;;;;;;2063440;28;20076;-71
2021/09/17 00:31:56;;;;;;;6.80;6.03;;;14.70;99.90;;;;;;2063779;28;20026;-71
2021/09/17 00:32:58;;;;;;;8.20;7.00;;;14.70;99.90;;;;;;2063247;28;20072;-71
2021/09/17 00:33:58;;;;;;;9.55;7.30;;;14.70;99.90;;;;;;2063494;28;20022;-71
2021/09/17 00:34:59;;;;;;;7.63;6.10;;;14.70;99.90;;;;;;2069973;28;20037;-71
2021/09/17 00:35:59;;;;;;;7.30;6.57;;;14.70;99.90;;;;;;2071251;28;20049;-71
2021/09/17 00:37:00;;;;;;;7.68;6.85;;;14.70;99.90;;;;;;2071509;28;20046;-71
2021/09/17 00:38:03;;;;;;;9.25;7.00;;;14.70;99.90;;;;;;2071657;28;20044;-70
2021/09/17 00:39:04;;;;;;;9.38;7.53;;;14.70;99.90;;;;;;2070951;28;20022;-71
2021/09/17 00:40:05;;;;;;;7.82;7.13;;;14.70;99.90;;;;;;2064562;28;20109;-71
2021/09/17 00:41:06;;;;;;;7.35;6.65;;;14.70;99.90;;;;;;2066846;28;20482;-71
2021/09/17 00:42:06;;;;;;;6.85;5.97;;;14.70;99.90;;;;;;2063268;28;20098;-71
2021/09/17 00:43:07;;;;;;;9.05;7.90;;;14.70;99.90;;;;;;2062935;28;20184;-71
2021/09/17 00:44:08;;;;;;;7.32;6.63;;;14.70;99.90;;;;;;2063367;28;20022;-71
2021/09/17 00:45:11;;;;;;;8.82;7.68;;;14.80;99.90;;;;;;2063298;28;20034;-71
2021/09/17 00:46:12;;;;;;;10.57;7.95;;;14.80;99.90;;;;;;2063557;28;20049;-71
2021/09/17 00:47:12;;;;;;;7.63;6.93;;;14.80;99.90;;;;;;2062966;28;20041;-71
2021/09/17 00:48:13;;;;;;;9.27;7.38;;;14.80;99.90;;;;;;2062897;28;20019;-71
2021/09/17 00:49:14;;;;;;;10.43;8.73;;;14.80;99.90;;;;;;2068434;28;20030;-71
2021/09/17 00:50:21;;;;;;;8.95;8.07;;;14.80;99.90;;;;;;2071678;28;20021;-71
2021/09/17 00:51:21;;;;;;;11.02;9.50;;;14.80;99.90;;;;;;2063833;28;20018;-71
2021/09/17 00:52:22;;;;;;;10.48;9.38;;;14.80;99.90;;;;;;2063317;28;20018;-71
2021/09/17 00:53:22;;;;;;;13.70;10.90;;;14.90;99.90;;;;;;2062740;28;20034;-71
2021/09/17 00:54:25;;;;;;;12.35;9.93;;;14.90;99.90;;;;;;2062953;28;20029;-71
2021/09/17 00:55:25;;;;;;;9.55;8.57;;;14.90;99.90;;;;;;2063274;28;20038;-71
2021/09/17 00:56:26;;;;;;;9.40;8.40;;;14.90;99.90;;;;;;2063486;28;20069;-71
2021/09/17 00:57:26;;;;;;;13.10;10.07;;;14.90;99.90;;;;;;2063324;28;20041;-71
2021/09/17 00:58:27;;;;;;;14.13;10.90;;;14.90;99.90;;;;;;2062704;28;20080;-71
2021/09/17 00:59:28;;;;;;;13.02;11.13;;;14.90;99.90;;;;;;2069972;28;20108;-71
2021/09/17 01:00:28;;;;;;;14.40;12.75;;;14.90;99.90;;;;;;2071899;28;20061;-71
2021/09/17 01:01:29;;;;;;;15.13;13.55;;;14.90;99.90;;;;;;2070806;28;20026;-71
2021/09/17 01:02:29;;;;;;;16.50;13.18;;;15.00;99.90;;;;;;2065184;28;20537;-71
2021/09/17 01:03:30;;;;;;;17.60;15.88;;;15.00;99.90;;;;;;2063233;28;20030;-71
2021/09/17 01:04:31;;;;;;;16.27;13.95;;;15.00;99.90;;;;;;2063355;28;20065;-71
2021/09/17 01:05:33;;;;;;;17.05;15.35;;;15.00;99.90;;;;;;2061331;28;20030;-71
2021/09/17 01:06:36;;;;;;;17.10;15.30;;;15.00;99.90;;;;;;2071404;28;20053;-71
2021/09/17 01:07:36;;;;;;;18.83;16.83;;;15.10;99.90;;;;;;2070027;28;20355;-71
2021/09/17 01:08:38;;;;;;;18.80;16.90;;;15.10;99.90;;;;;;2068077;28;20105;-71
2021/09/17 01:09:40;;;;;;;18.50;16.58;;;15.10;99.90;;;;;;2068543;28;20026;-71
2021/09/17 01:10:42;;;;;;;17.98;16.25;;;15.10;99.90;;;;;;2065589;28;20447;-71
2021/09/17 01:11:44;;;;;;;16.13;14.52;;;15.10;99.90;;;;;;2063343;28;20137;-71
2021/09/17 01:12:46;;;;;;;19.10;16.42;;;15.10;99.90;;;;;;2063553;28;20079;-71
2021/09/17 01:13:46;;;;;;;19.42;17.15;;;15.20;99.90;;;;;;2062978;28;20955;-71
2021/09/17 01:14:47;;;;;;;19.52;17.50;;;15.20;99.90;;;;;;2063265;28;20427;-71
2021/09/17 01:15:48;;;;;;;20.75;18.50;;;15.20;99.90;;;;;;2067007;28;20022;-71
2021/09/17 01:16:48;;;;;;;18.02;16.13;;;15.20;99.90;;;;;;2068370;28;20019;-71
2021/09/17 01:17:49;;;;;;;23.05;18.75;;;15.20;99.90;;;;;;2072490;28;20022;-71
2021/09/17 01:18:53;;;;;;;22.45;19.92;;;15.20;99.90;;;;;;2070631;28;20053;-71
2021/09/17 01:19:53;;;;;;;22.85;19.38;;;15.30;99.90;;;;;;2071111;28;20030;-71
2021/09/17 01:20:59;;;;;;;22.83;19.38;;;15.20;99.90;;;;;;2065010;28;20027;-71
2021/09/17 01:22:02;;;;;;;24.45;20.58;;;15.30;99.90;;;;;;2064948;28;20026;-71
2021/09/17 01:23:03;;;;;;;24.35;20.17;;;15.20;99.90;;;;;;2064744;28;20128;-71
2021/09/17 01:24:04;;;;;;;23.08;20.67;;;15.30;99.90;;;;;;2065664;28;20042;-71
2021/09/17 01:25:07;;;;;;;24.15;21.75;;;15.30;99.90;;;;;;2072128;28;20124;-71
2021/09/17 01:26:08;;;;;;;22.92;19.63;;;15.30;99.90;;;;;;2072601;28;20026;-71
2021/09/17 01:27:08;;;;;;;25.08;20.25;;;15.30;99.90;;;;;;2065013;28;20034;-71
2021/09/17 01:28:09;;;;;;;24.75;22.00;;;15.30;99.90;;;;;;2064321;28;20026;-71
2021/09/17 01:29:09;;;;;;;22.33;20.02;;;15.40;99.90;;;;;;2064597;28;20026;-71
2021/09/17 01:30:12;;;;;;;20.23;18.13;;;15.40;99.90;;;;;;2064859;28;20022;-71
2021/09/17 01:31:12;;;;;;;21.83;19.55;;;15.40;99.90;;;;;;2064603;28;20108;-71
2021/09/17 01:32:13;;;;;;;27.10;21.02;;;15.40;99.90;;;;;;2064998;28;20084;-71
2021/09/17 01:33:14;;;;;;;24.08;21.58;;;15.40;99.90;;;;;;2064719;28;20376;-71
2021/09/17 01:34:20;;;;;;;24.73;20.10;;;15.40;99.90;;;;;;2067268;28;20030;-71
2021/09/17 01:35:23;;;;;;;24.23;21.60;;;15.40;99.90;;;;;;2072955;28;20048;-71
2021/09/17 01:36:23;;;;;;;24.30;19.98;;;15.40;99.90;;;;;;2072996;28;20441;-71
2021/09/17 01:37:24;;;;;;;23.55;21.13;;;15.40;99.90;;;;;;2072947;28;20025;-71
2021/09/17 01:38:26;;;;;;;24.60;21.95;;;15.40;99.90;;;;;;2071380;28;20071;-71
2021/09/17 01:39:27;;;;;;;26.67;22.75;;;15.50;99.90;;;;;;2070387;28;20026;-71
2021/09/17 01:40:28;;;;;;;26.25;23.15;;;15.50;99.90;;;;;;2072047;28;20053;-71
2021/09/17 01:41:28;;;;;;;24.80;22.40;;;15.50;99.90;;;;;;2066597;28;20030;-71
2021/09/17 01:42:29;;;;;;;24.40;21.85;;;15.50;99.90;;;;;;2066595;28;20022;-72
2021/09/17 01:43:29;;;;;;;24.70;22.10;;;15.50;99.90;;;;;;2072962;28;20057;-71
2021/09/17 01:44:38;;;;;;;27.52;22.25;;;15.50;99.90;;;;;;2068546;28;20093;-71
2021/09/17 01:45:38;;;;;;;23.42;21.02;;;15.50;99.90;;;;;;2064786;28;20152;-71
2021/09/17 01:46:39;;;;;;;27.85;21.63;;;15.50;99.90;;;;;;2064588;28;20550;-71
2021/09/17 01:47:40;;;;;;;26.05;22.45;;;15.50;99.90;;;;;;2064201;28;20506;-71
2021/09/17 01:48:40;;;;;;;26.02;23.38;;;15.60;99.90;;;;;;2064312;28;20378;-71
2021/09/17 01:49:41;;;;;;;25.65;23.02;;;15.60;99.90;;;;;;2064481;28;20425;-71
2021/09/17 01:50:42;;;;;;;27.70;24.75;;;15.60;99.90;;;;;;2065848;28;20049;-71
2021/09/17 01:51:42;;;;;;;29.20;24.65;;;15.60;99.90;;;;;;2069234;28;20013;-71
2021/09/17 01:52:43;;;;;;;26.08;23.30;;;15.60;99.90;;;;;;2067483;28;20030;-71
2021/09/17 01:53:44;;;;;;;33.17;26.77;;;15.70;99.90;;;;;;2064330;28;20600;-71
2021/09/17 01:54:45;;;;;;;27.70;24.70;;;15.70;99.90;;;;;;2064804;28;20089;-71
2021/09/17 01:55:46;;;;;;;28.63;25.58;;;15.70;99.90;;;;;;2064373;28;20370;-71
2021/09/17 01:56:46;;;;;;;32.85;26.92;;;15.70;99.90;;;;;;2064677;28;20050;-71
2021/09/17 01:57:47;;;;;;;28.67;25.60;;;15.70;99.90;;;;;;2070783;28;20141;-71
2021/09/17 01:58:47;;;;;;;30.08;26.27;;;15.70;99.90;;;;;;2072086;28;20029;-71
2021/09/17 01:59:48;;;;;;;29.35;25.63;;;15.70;99.90;;;;;;2072837;28;20040;-71
2021/09/17 02:00:48;;;;;;;30.58;26.30;;;15.70;99.90;;;;;;2067325;28;20034;-71
2021/09/17 02:01:49;;;;;;;29.08;26.00;;;15.70;99.90;;;;;;2064618;28;20109;-71
2021/09/17 02:02:50;;;;;;;30.40;27.25;;;15.70;99.90;;;;;;2065070;28;20049;-71
2021/09/17 02:03:51;;;;;;;29.60;26.00;;;15.70;99.90;;;;;;2063869;28;20061;-71
2021/09/17 02:04:52;;;;;;;29.60;26.50;;;15.70;99.90;;;;;;2064757;28;20542;-71
2021/09/17 02:05:52;;;;;;;29.58;25.92;;;15.80;99.90;;;;;;2064091;28;20045;-71
2021/09/17 02:06:53;;;;;;;30.42;26.95;;;15.80;99.90;;;;;;2064400;28;20038;-69
2021/09/17 02:07:53;;;;;;;29.35;25.90;;;15.80;99.90;;;;;;2064379;28;20026;-71
2021/09/17 02:08:55;;;;;;;33.53;28.25;;;15.80;99.90;;;;;;2064102;28;20049;-71
2021/09/17 02:09:55;;;;;;;36.72;28.65;;;15.80;99.90;;;;;;2064332;28;20026;-71
2021/09/17 02:10:56;;;;;;;31.85;28.27;;;15.80;99.90;;;;;;2064795;28;20061;-71
2021/09/17 02:11:56;;;;;;;32.47;27.95;;;15.80;99.90;;;;;;2064174;28;20023;-70
2021/09/17 02:12:57;;;;;;;30.13;26.65;;;15.80;99.90;;;;;;2064416;28;20015;-71
2021/09/17 02:14:01;;;;;;;33.58;28.75;;;15.80;99.90;;;;;;2064726;28;20070;-71
2021/09/17 02:15:03;;;;;;;32.70;28.67;;;15.80;99.90;;;;;;2064717;28;20802;-71
2021/09/17 02:16:03;;;;;;;31.48;28.08;;;15.80;99.90;;;;;;2064384;28;20026;-71
2021/09/17 02:17:04;;;;;;;32.30;27.63;;;15.90;99.90;;;;;;2067638;28;20029;-71
2021/09/17 02:18:05;;;;;;;30.70;27.40;;;15.90;99.90;;;;;;2072261;28;20029;-71
2021/09/17 02:19:06;;;;;;;31.85;28.15;;;15.90;99.90;;;;;;2068727;28;20498;-71
2021/09/17 02:20:07;;;;;;;31.65;26.30;;;15.90;99.90;;;;;;2072015;28;20024;-71
2021/09/17 02:21:08;;;;;;;30.48;27.27;;;15.90;99.90;;;;;;2072381;28;20030;-71
2021/09/17 02:22:09;;;;;;;31.20;26.85;;;15.90;99.90;;;;;;2072207;28;20022;-71
2021/09/17 02:23:09;;;;;;;30.80;27.60;;;15.90;99.90;;;;;;2074804;28;20029;-71
2021/09/17 02:24:10;;;;;;;33.88;29.40;;;15.90;99.90;;;;;;2072402;28;20374;-71
2021/09/17 02:25:11;;;;;;;33.17;28.63;;;15.90;99.90;;;;;;2065426;28;20026;-71
2021/09/17 02:26:11;;;;;;;35.78;30.30;;;15.90;99.90;;;;;;2063674;28;20031;-71
2021/09/17 02:27:12;;;;;;;33.92;30.33;;;15.90;99.90;;;;;;2064174;28;20109;-71
2021/09/17 02:28:13;;;;;;;34.58;29.73;;;16.00;99.90;;;;;;2063864;28;20038;-71
2021/09/17 02:29:13;;;;;;;34.47;30.55;;;16.00;99.90;;;;;;2063594;28;20479;-71
2021/09/17 02:30:14;;;;;;;35.60;31.77;;;16.00;99.90;;;;;;2064505;28;20053;-71
2021/09/17 02:31:15;;;;;;;33.42;29.90;;;16.00;99.90;;;;;;2064453;28;20029;-71
2021/09/17 02:32:16;;;;;;;32.97;29.55;;;16.00;99.90;;;;;;2071514;28;20532;-71
2021/09/17 02:33:16;;;;;;;37.78;33.75;;;16.00;99.90;;;;;;2072294;28;20481;-71
2021/09/17 02:34:17;;;;;;;35.90;31.90;;;16.00;99.90;;;;;;2072548;28;20021;-71
2021/09/17 02:35:17;;;;;;;37.05;32.13;;;16.00;99.90;;;;;;2072189;28;20498;-71
2021/09/17 02:36:18;;;;;;;34.45;30.27;;;16.00;99.90;;;;;;2072389;28;20026;-71
2021/09/17 02:37:18;;;;;;;36.70;32.40;;;16.10;99.90;;;;;;2072660;28;20054;-71
2021/09/17 02:38:20;;;;;;;36.70;32.70;;;16.10;99.90;;;;;;2071670;28;20022;-71
2021/09/17 02:39:21;;;;;;;38.30;33.47;;;16.00;99.90;;;;;;2069638;28;20045;-71
2021/09/17 02:40:21;;;;;;;42.83;36.00;;;16.00;99.90;;;;;;2064630;28;20045;-71
2021/09/17 02:41:22;;;;;;;41.17;34.47;;;16.10;99.90;;;;;;2064239;28;20474;-71
2021/09/17 02:42:23;;;;;;;36.38;30.88;;;16.10;99.90;;;;;;2064338;28;20043;-71
2021/09/17 02:43:23;;;;;;;40.30;35.90;;;16.10;99.90;;;;;;2063202;28;20038;-71
2021/09/17 02:44:24;;;;;;;41.78;35.58;;;16.10;99.90;;;;;;2063545;28;20549;-71
2021/09/17 02:45:24;;;;;;;42.20;33.15;;;16.10;99.90;;;;;;2066425;28;20037;-71
2021/09/17 02:46:25;;;;;;;41.83;35.00;;;16.10;99.90;;;;;;2064399;28;20109;-71
2021/09/17 02:47:25;;;;;;;41.95;34.22;;;16.10;99.90;;;;;;2064137;28;20515;-71
2021/09/17 02:48:27;;;;;;;38.92;34.78;;;16.10;99.90;;;;;;2063839;28;20081;-71
2021/09/17 02:49:30;;;;;;;42.08;35.08;;;16.10;99.90;;;;;;2064007;28;20390;-71
2021/09/17 02:50:31;;;;;;;40.45;35.30;;;16.10;99.90;;;;;;2064266;28;20026;-71
2021/09/17 02:51:31;;;;;;;41.28;35.75;;;16.10;99.90;;;;;;2064127;28;20019;-71
2021/09/17 02:52:32;;;;;;;39.92;34.88;;;16.10;99.90;;;;;;2064152;28;20105;-71
2021/09/17 02:53:36;;;;;;;40.67;34.97;;;16.10;99.90;;;;;;2064294;28;20037;-71
2021/09/17 02:54:36;;;;;;;45.33;34.78;;;16.10;99.90;;;;;;2064004;28;20368;-71
2021/09/17 02:55:37;;;;;;;40.00;32.90;;;16.10;99.90;;;;;;2064252;28;20030;-71
2021/09/17 02:56:38;;;;;;;37.25;32.35;;;16.10;99.90;;;;;;2064226;28;20101;-71
2021/09/17 02:57:38;;;;;;;37.63;33.30;;;16.10;99.90;;;;;;2064009;28;20057;-71
2021/09/17 02:58:39;;;;;;;39.05;33.13;;;16.10;99.90;;;;;;2062897;28;20035;-71
2021/09/17 02:59:39;;;;;;;38.47;34.33;;;16.10;99.90;;;;;;2071088;28;20538;-71
2021/09/17 03:00:41;;;;;;;38.80;33.17;;;16.20;99.90;;;;;;2071717;28;20109;-71
2021/09/17 03:01:42;;;;;;;42.10;36.85;;;16.20;99.90;;;;;;2072184;28;20084;-71
2021/09/17 03:02:43;;;;;;;41.63;35.75;;;16.20;99.90;;;;;;2063695;28;20083;-71
2021/09/17 03:03:43;;;;;;;44.42;37.92;;;16.20;99.90;;;;;;2064236;28;20026;-71
2021/09/17 03:04:45;;;;;;;41.67;36.13;;;16.20;99.90;;;;;;2064275;28;20061;-71
2021/09/17 03:05:45;;;;;;;42.65;36.38;;;16.20;99.90;;;;;;2068406;28;20088;-71
2021/09/17 03:06:46;;;;;;;42.78;36.72;;;16.20;99.90;;;;;;2070389;28;20527;-71
2021/09/17 03:07:48;;;;;;;38.60;34.53;;;16.20;99.90;;;;;;2063246;28;20107;-71
2021/09/17 03:08:49;;;;;;;44.13;37.97;;;16.20;99.90;;;;;;2067763;28;20033;-71
2021/09/17 03:09:49;;;;;;;39.45;35.15;;;16.30;99.90;;;;;;2064246;28;20023;-71
2021/09/17 03:10:52;;;;;;;40.92;35.80;;;16.30;99.90;;;;;;2063946;28;20018;-71
2021/09/17 03:11:53;;;;;;;40.63;35.80;;;16.30;99.90;;;;;;2066370;28;20026;-71
2021/09/17 03:12:53;;;;;;;40.13;34.92;;;16.30;99.90;;;;;;2071992;28;20113;-71
2021/09/17 03:13:54;;;;;;;40.17;35.90;;;16.30;99.90;;;;;;2072169;28;20022;-71
2021/09/17 03:14:54;;;;;;;40.65;34.65;;;16.30;99.90;;;;;;2067630;28;20033;-71
2021/09/17 03:15:55;;;;;;;36.47;32.55;;;16.30;99.90;;;;;;2065109;28;20026;-71
2021/09/17 03:16:56;;;;;;;43.40;35.33;;;16.30;99.90;;;;;;2066862;28;20034;-71
2021/09/17 03:17:56;;;;;;;39.15;34.95;;;16.30;99.90;;;;;;2063999;28;20058;-71
2021/09/17 03:18:57;;;;;;;41.67;36.17;;;16.30;99.90;;;;;;2070681;28;20040;-71
2021/09/17 03:19:57;;;;;;;40.33;35.95;;;16.30;99.90;;;;;;2071208;28;20026;-71
2021/09/17 03:20:58;;;;;;;43.63;36.08;;;16.30;99.90;;;;;;2063753;28;20034;-71
2021/09/17 03:22:00;;;;;;;41.42;36.75;;;16.30;99.90;;;;;;2063393;28;20560;-71
2021/09/17 03:23:00;;;;;;;41.05;35.10;;;16.30;99.90;;;;;;2063218;28;20045;-71
2021/09/17 03:24:01;;;;;;;41.45;36.70;;;16.30;99.90;;;;;;2064384;28;20030;-71
2021/09/17 03:25:03;;;;;;;40.83;35.15;;;16.30;99.90;;;;;;2063973;28;20018;-71
2021/09/17 03:26:05;;;;;;;42.38;36.72;;;16.30;99.90;;;;;;2066281;28;20129;-71
2021/09/17 03:27:05;;;;;;;45.45;39.97;;;16.30;99.90;;;;;;2071578;28;20034;-71
2021/09/17 03:28:06;;;;;;;44.97;39.15;;;16.30;99.90;;;;;;2075343;28;20037;-71
2021/09/17 03:29:07;;;;;;;41.15;36.67;;;16.30;99.90;;;;;;2071241;28;20018;-71
2021/09/17 03:30:09;;;;;;;41.88;37.30;;;16.30;99.90;;;;;;2064101;28;20030;-71
2021/09/17 03:31:09;;;;;;;45.65;37.10;;;16.30;99.90;;;;;;2065039;28;20105;-71
2021/09/17 03:32:10;;;;;;;44.58;38.85;;;16.30;99.90;;;;;;2063911;28;20026;-71
2021/09/17 03:33:11;;;;;;;45.53;40.05;;;16.40;99.90;;;;;;2063741;28;20398;-71
2021/09/17 03:34:12;;;;;;;46.40;39.95;;;16.40;99.90;;;;;;2063876;28;20436;-71
2021/09/17 03:35:12;;;;;;;47.50;40.63;;;16.30;99.90;;;;;;2072172;28;20072;-71
2021/09/17 03:36:13;;;;;;;51.10;41.75;;;16.30;99.90;;;;;;2071456;28;20029;-71
2021/09/17 03:37:13;;;;;;;45.80;40.10;;;16.30;99.90;;;;;;2072177;28;20026;-71
2021/09/17 03:38:14;;;;;;;48.47;39.65;;;16.40;99.90;;;;;;2071162;28;20336;-71
2021/09/17 03:39:15;;;;;;;48.95;39.95;;;16.40;99.90;;;;;;2071292;28;20022;-71
2021/09/17 03:40:16;;;;;;;48.65;40.55;;;16.40;99.90;;;;;;2071899;28;20080;-71
2021/09/17 03:41:16;;;;;;;47.55;42.20;;;16.40;99.90;;;;;;2066881;28;20451;-71
2021/09/17 03:42:17;;;;;;;50.90;43.00;;;16.40;99.90;;;;;;2063695;28;20024;-71
2021/09/17 03:43:17;;;;;;;46.90;39.60;;;16.40;99.90;;;;;;2063796;28;20375;-71
2021/09/17 03:44:18;;;;;;;47.50;41.38;;;16.40;99.90;;;;;;2063550;28;20084;-71
2021/09/17 03:45:19;;;;;;;51.35;43.55;;;16.40;99.90;;;;;;2064226;28;20406;-71
2021/09/17 03:46:19;;;;;;;51.22;42.60;;;16.40;99.90;;;;;;2063389;28;20029;-71
2021/09/17 03:47:20;;;;;;;49.60;42.10;;;16.40;99.90;;;;;;2063618;28;20037;-71
2021/09/17 03:48:20;;;;;;;43.70;39.03;;;16.40;99.90;;;;;;2063010;28;20022;-71
2021/09/17 03:49:21;;;;;;;39.85;35.55;;;16.40;99.90;;;;;;2063673;28;20118;-71
2021/09/17 03:50:22;;;;;;;40.72;36.42;;;16.40;99.90;;;;;;2063953;28;20439;-71
2021/09/17 03:51:24;;;;;;;51.83;43.95;;;16.40;99.90;;;;;;2063666;28;20038;-71
2021/09/17 03:52:24;;;;;;;53.20;43.90;;;16.40;99.90;;;;;;2063683;28;20011;-71
2021/09/17 03:53:25;;;;;;;43.30;38.67;;;16.40;99.90;;;;;;2069316;28;20478;-71
2021/09/17 03:54:27;;;;;;;47.17;40.63;;;16.40;99.90;;;;;;2070946;28;20029;-71
2021/09/17 03:55:28;;;;;;;45.90;40.45;;;16.40;99.90;;;;;;2071063;28;20018;-71
2021/09/17 03:56:28;;;;;;;39.00;32.90;;;16.40;99.90;;;;;;2063675;28;20406;-71
2021/09/17 03:57:29;;;;;;;45.38;36.90;;;16.40;99.90;;;;;;2068585;28;20030;-71
2021/09/17 03:58:29;;;;;;;42.67;37.10;;;16.40;99.90;;;;;;2071074;28;20030;-71
2021/09/17 03:59:30;;;;;;;43.45;37.40;;;16.40;99.90;;;;;;2072043;28;20030;-71
2021/09/17 04:00:31;;;;;;;39.55;34.88;;;16.40;99.90;;;;;;2071265;28;20693;-71
2021/09/17 04:01:31;;;;;;;45.05;37.90;;;16.40;99.90;;;;;;2071394;28;20493;-72
2021/09/17 04:02:32;;;;;;;43.45;37.55;;;16.50;99.90;;;;;;2071351;28;20022;-71
2021/09/17 04:03:33;;;;;;;39.95;35.03;;;16.40;99.90;;;;;;2071849;28;20399;-71
2021/09/17 04:04:33;;;;;;;41.15;36.60;;;16.40;99.90;;;;;;2070957;28;20025;-71
2021/09/17 04:05:34;;;;;;;43.35;38.13;;;16.40;99.90;;;;;;2071482;28;20104;-71
2021/09/17 04:06:34;;;;;;;50.20;41.50;;;16.50;99.90;;;;;;2064686;28;20458;-71
2021/09/17 04:07:39;;;;;;;50.00;41.13;;;16.50;99.90;;;;;;2063400;28;20045;-71
2021/09/17 04:08:40;;;;;;;40.67;35.85;;;16.40;99.90;;;;;;2062201;28;20027;-71
2021/09/17 04:09:40;;;;;;;41.90;36.10;;;16.40;99.90;;;;;;2063330;28;20555;-71
2021/09/17 04:10:41;;;;;;;43.38;35.58;;;16.40;99.90;;;;;;2063507;28;20034;-71
2021/09/17 04:11:41;;;;;;;41.67;37.13;;;16.40;99.90;;;;;;2063603;28;20475;-71
2021/09/17 04:12:43;;;;;;;43.67;36.08;;;16.50;99.90;;;;;;2063817;28;20022;-71
2021/09/17 04:13:43;;;;;;;33.58;30.00;;;16.50;99.90;;;;;;2063014;28;20845;-71
2021/09/17 04:14:44;;;;;;;38.45;34.35;;;16.40;99.90;;;;;;2062999;28;20026;-71
2021/09/17 04:15:45;;;;;;;42.20;34.63;;;16.50;99.90;;;;;;2063557;28;20033;-71
2021/09/17 04:16:45;;;;;;;40.53;36.05;;;16.40;99.90;;;;;;2063431;28;20431;-71
2021/09/17 04:17:47;;;;;;;40.05;35.75;;;16.40;99.90;;;;;;2063423;28;20526;-71
2021/09/17 04:18:47;;;;;;;36.42;32.38;;;16.50;99.90;;;;;;2062847;28;20033;-71
2021/09/17 04:19:48;;;;;;;40.25;35.67;;;16.50;99.90;;;;;;2063900;28;20089;-71
2021/09/17 04:20:49;;;;;;;41.33;37.08;;;16.50;99.90;;;;;;2071848;28;20041;-71
2021/09/17 04:21:50;;;;;;;42.47;37.58;;;16.50;99.90;;;;;;2071475;28;20493;-71
2021/09/17 04:22:50;;;;;;;40.63;34.88;;;16.50;99.90;;;;;;2071936;28;20360;-71
2021/09/17 04:23:51;;;;;;;43.70;38.90;;;16.50;99.90;;;;;;2063509;28;20085;-71
2021/09/17 04:24:53;;;;;;;46.30;40.15;;;16.50;99.90;;;;;;2063325;28;20403;-71
2021/09/17 04:25:53;;;;;;;45.03;39.72;;;16.50;99.90;;;;;;2063147;28;20080;-70
2021/09/17 04:26:54;;;;;;;47.10;40.22;;;16.50;99.90;;;;;;2063496;28;20104;-71
2021/09/17 04:27:55;;;;;;;43.50;38.80;;;16.50;99.90;;;;;;2063449;28;20038;-71
2021/09/17 04:28:56;;;;;;;44.65;39.78;;;16.50;99.90;;;;;;2062982;28;20050;-70
2021/09/17 04:29:57;;;;;;;43.28;38.55;;;16.50;99.90;;;;;;2063392;28;20038;-71
2021/09/17 04:30:57;;;;;;;43.35;38.60;;;16.50;99.90;;;;;;2063482;28;20089;-70
2021/09/17 04:31:58;;;;;;;42.58;36.83;;;16.50;99.90;;;;;;2063238;28;20466;-70
2021/09/17 04:32:58;;;;;;;38.47;34.30;;;16.50;99.90;;;;;;2064920;28;20064;-70
2021/09/17 04:33:59;;;;;;;43.45;38.10;;;16.50;99.90;;;;;;2079108;28;20417;-70
2021/09/17 04:34:59;;;;;;;40.03;34.05;;;16.50;99.90;;;;;;2079259;28;20029;-70
2021/09/17 04:36:00;;;;;;;41.03;36.47;;;16.50;99.90;;;;;;2071141;28;20530;-70
2021/09/17 04:37:00;;;;;;;45.10;39.25;;;16.50;99.90;;;;;;2071729;28;20029;-70
2021/09/17 04:38:01;;;;;;;42.28;36.22;;;16.50;99.90;;;;;;2071284;28;20029;-71
2021/09/17 04:39:02;;;;;;;42.90;38.10;;;16.50;99.90;;;;;;2071102;28;20497;-70
2021/09/17 04:40:02;;;;;;;39.95;35.63;;;16.50;99.90;;;;;;2063772;28;20031;-70
2021/09/17 04:41:03;;;;;;;40.08;34.72;;;16.50;99.90;;;;;;2063436;28;20467;-70
2021/09/17 04:42:04;;;;;;;33.88;29.95;;;16.50;99.90;;;;;;2063318;28;20399;-71
2021/09/17 04:43:05;;;;;;;40.35;35.80;;;16.40;99.90;;;;;;2063523;28;20027;-71
2021/09/17 04:44:05;;;;;;;36.78;32.83;;;16.50;99.90;;;;;;2063271;28;20050;-70
2021/09/17 04:45:07;;;;;;;40.35;34.78;;;16.40;99.90;;;;;;2063568;28;20096;-70
2021/09/17 04:46:07;;;;;;;36.38;32.42;;;16.50;99.90;;;;;;2063240;28;20031;-71
2021/09/17 04:47:08;;;;;;;40.90;36.45;;;16.50;99.90;;;;;;2066437;28;20156;-71
2021/09/17 04:48:13;;;;;;;42.40;37.58;;;16.50;99.90;;;;;;2070941;28;20025;-71
2021/09/17 04:49:13;;;;;;;41.20;34.67;;;16.40;99.90;;;;;;2068227;28;20105;-70
2021/09/17 04:50:14;;;;;;;37.97;33.88;;;16.50;99.90;;;;;;2063595;28;20042;-70
2021/09/17 04:51:14;;;;;;;38.33;34.10;;;16.40;99.90;;;;;;2070675;28;20021;-70
2021/09/17 04:52:16;;;;;;;35.88;32.13;;;16.50;99.90;;;;;;2071988;28;20026;-70
2021/09/17 04:53:16;;;;;;;34.63;30.88;;;16.40;99.90;;;;;;2066160;28;20010;-70
2021/09/17 04:54:17;;;;;;;39.97;35.38;;;16.40;99.90;;;;;;2066014;28;20600;-71
2021/09/17 04:55:18;;;;;;;40.05;35.67;;;16.40;99.90;;;;;;2065953;28;20077;-70
2021/09/17 04:56:18;;;;;;;43.78;38.83;;;16.40;99.90;;;;;;2066191;28;20037;-71
2021/09/17 04:57:19;;;;;;;38.47;34.45;;;16.40;99.90;;;;;;2065812;28;20026;-71
2021/09/17 04:58:20;;;;;;;42.05;37.35;;;16.40;99.90;;;;;;2065635;28;20057;-70
2021/09/17 04:59:20;;;;;;;41.65;36.55;;;16.40;99.90;;;;;;2065590;28;20026;-71
2021/09/17 05:00:21;;;;;;;46.83;41.83;;;16.40;99.90;;;;;;2071215;28;20025;-70
2021/09/17 05:01:22;;;;;;;48.35;41.75;;;16.40;99.90;;;;;;2074097;28;20022;-71
2021/09/17 05:02:22;;;;;;;45.80;39.85;;;16.40;99.90;;;;;;2069379;28;20080;-71
2021/09/17 05:03:23;;;;;;;45.38;38.45;;;16.40;99.90;;;;;;2065584;28;20037;-71
2021/09/17 05:04:23;;;;;;;45.05;35.47;;;16.40;99.90;;;;;;2065959;28;20018;-71
2021/09/17 05:05:25;;;;;;;40.92;35.45;;;16.40;99.90;;;;;;2065186;28;20041;-71
2021/09/17 05:06:28;;;;;;;37.63;33.55;;;16.40;99.90;;;;;;2065547;28;20486;-71
2021/09/17 05:07:32;;;;;;;41.55;35.88;;;16.40;99.90;;;;;;2065831;28;20405;-70
2021/09/17 05:08:33;;;;;;;41.38;34.80;;;16.40;99.90;;;;;;2065499;28;20032;-70
2021/09/17 05:09:33;;;;;;;44.58;37.13;;;16.40;99.90;;;;;;2065937;28;20027;-70
2021/09/17 05:10:34;;;;;;;39.03;34.83;;;16.40;99.90;;;;;;2066098;28;20530;-70